Time;durP1;ratioP1;P1;durP2;ratioP2;P2;SDS_P1;SDS_P2;PMS_P1;PMS_P2;Temp;Humidity;BMP_temperature;BMP_pressure;BME280_temperature;BME280_humidity;BME280_pressure;Samples;Min_cycle;Max_cycle;Signal;HPM_P1;HPM_P2
2023/11/11 00:01:23;;;;;;;20.60;6.40;;;;;;;19.09;61.74;101150.30;106774;1257;25376;-54
2023/11/11 00:03:50;;;;;;;23.40;6.50;;;;;;;19.05;62.12;101138.17;107145;1260;25328;-54
2023/11/11 00:06:18;;;;;;;20.20;6.30;;;;;;;19.03;62.20;101130.57;107116;1260;25336;-54
2023/11/11 00:08:45;;;;;;;22.50;6.30;;;;;;;19.04;62.07;101138.74;106824;1257;25325;-54
2023/11/11 00:11:12;;;;;;;18.90;5.80;;;;;;;19.07;62.00;101135.80;107184;1263;25346;-54
2023/11/11 00:13:39;;;;;;;18.50;5.30;;;;;;;19.08;62.04;101135.02;107003;1254;25402;-54
2023/11/11 00:16:06;;;;;;;19.50;5.70;;;;;;;19.10;62.03;101130.19;106906;1257;22753;-53
2023/11/11 00:18:33;;;;;;;21.50;5.90;;;;;;;19.10;62.02;101121.58;107072;1251;24205;-54
2023/11/11 00:21:00;;;;;;;21.60;6.60;;;;;;;19.09;62.16;101118.46;107138;1257;25340;-53
2023/11/11 00:23:27;;;;;;;23.10;6.30;;;;;;;19.11;62.25;101113.27;107104;1257;25398;-53
2023/11/11 00:25:54;;;;;;;14.90;5.80;;;;;;;19.14;62.32;101104.33;107202;1255;25327;-53
2023/11/11 00:28:22;;;;;;;24.80;7.00;;;;;;;19.15;62.15;101095.86;107204;1250;25318;-54
2023/11/11 00:30:50;;;;;;;20.60;6.50;;;;;;;19.14;62.33;101099.39;107174;1254;25406;-54
2023/11/11 00:33:19;;;;;;;20.70;5.60;;;;;;;19.17;62.49;101095.17;107071;1263;24364;-53
2023/11/11 00:35:46;;;;;;;22.20;5.80;;;;;;;19.19;62.31;101088.77;107269;1251;25325;-53
2023/11/11 00:38:14;;;;;;;30.50;7.00;;;;;;;19.20;62.08;101085.91;107126;1257;25618;-53
2023/11/11 00:40:41;;;;;;;24.40;6.30;;;;;;;19.20;62.26;101073.73;107009;1254;24205;-55
2023/11/11 00:43:09;;;;;;;26.00;7.30;;;;;;;19.25;62.13;101065.42;107021;1256;25396;-54
2023/11/11 00:45:36;;;;;;;28.40;7.40;;;;;;;19.31;62.00;101057.19;106915;1254;25287;-54
2023/11/11 00:48:03;;;;;;;22.00;6.50;;;;;;;19.31;62.22;101060.70;106779;1260;25481;-55
2023/11/11 00:50:31;;;;;;;32.90;6.80;;;;;;;19.24;62.50;101054.52;106789;1263;25340;-54
2023/11/11 00:52:59;;;;;;;26.00;6.70;;;;;;;19.22;62.53;101051.64;106860;1263;24211;-54
2023/11/11 00:55:27;;;;;;;30.00;7.20;;;;;;;19.21;62.51;101041.14;107019;1269;25417;-55
2023/11/11 00:57:54;;;;;;;24.60;6.20;;;;;;;19.23;62.62;101036.49;107146;1251;25356;-54
2023/11/11 01:00:21;;;;;;;26.90;7.40;;;;;;;19.24;62.36;101024.98;107170;1254;22818;-54
2023/11/11 01:02:50;;;;;;;22.60;5.70;;;;;;;19.22;62.50;101026.88;107073;1258;25343;-54
2023/11/11 01:05:19;;;;;;;25.40;7.30;;;;;;;19.24;62.65;101009.88;107183;1255;25328;-54
2023/11/11 01:07:46;;;;;;;19.40;6.70;;;;;;;19.18;62.68;101002.61;106844;1266;22534;-54
2023/11/11 01:10:13;;;;;;;18.20;5.70;;;;;;;19.17;62.56;101000.91;106820;1266;22645;-54
2023/11/11 01:12:41;;;;;;;22.10;6.10;;;;;;;19.20;62.87;101001.64;106868;1255;25472;-54
2023/11/11 01:15:12;;;;;;;17.20;5.80;;;;;;;19.20;62.84;100994.58;106606;1262;25335;-54
2023/11/11 01:17:40;;;;;;;22.90;6.20;;;;;;;19.29;62.45;100993.94;106754;1260;24448;-55
2023/11/11 01:20:07;;;;;;;25.50;6.60;;;;;;;19.33;62.24;100985.11;106696;1262;25341;-54
2023/11/11 01:22:38;;;;;;;22.70;6.70;;;;;;;19.35;62.42;100977.80;106922;1257;23890;-53
2023/11/11 01:25:07;;;;;;;25.10;6.00;;;;;;;19.33;62.39;100965.05;106757;1260;25443;-54
2023/11/11 01:27:36;;;;;;;26.40;6.00;;;;;;;19.23;62.61;100961.53;106824;1256;25562;-54
2023/11/11 01:30:04;;;;;;;27.30;6.90;;;;;;;19.20;62.64;100957.14;106885;1257;25577;-54
2023/11/11 01:32:31;;;;;;;28.60;6.80;;;;;;;19.19;62.64;100952.28;106905;1256;22538;-54
2023/11/11 01:34:58;;;;;;;17.80;5.90;;;;;;;19.20;62.92;100956.11;106813;1257;25412;-53
2023/11/11 01:37:26;;;;;;;17.70;6.00;;;;;;;19.20;62.91;100948.01;106781;1259;25328;-53
2023/11/11 01:39:52;;;;;;;26.10;6.50;;;;;;;19.19;62.85;100942.77;106853;1262;25446;-54
2023/11/11 01:42:19;;;;;;;31.10;8.20;;;;;;;19.19;62.94;100939.27;107130;1257;25356;-54
2023/11/11 01:44:47;;;;;;;22.40;6.60;;;;;;;19.18;63.19;100928.77;107109;1264;25580;-53
2023/11/11 01:47:13;;;;;;;19.50;6.00;;;;;;;19.19;63.23;100928.55;106870;1263;25507;-53
2023/11/11 01:49:41;;;;;;;22.90;6.50;;;;;;;19.18;63.08;100918.23;106766;1274;25303;-53
2023/11/11 01:52:09;;;;;;;23.30;5.80;;;;;;;19.19;63.21;100922.40;106995;1257;25328;-54
2023/11/11 01:54:37;;;;;;;21.60;6.80;;;;;;;19.20;63.32;100905.45;106848;1266;22643;-53
2023/11/11 01:57:04;;;;;;;18.80;4.90;;;;;;;19.20;63.43;100902.45;107046;1267;25456;-55
2023/11/11 01:59:32;;;;;;;23.10;6.50;;;;;;;19.19;63.33;100903.02;106732;1261;22527;-53
2023/11/11 02:02:00;;;;;;;29.90;7.60;;;;;;;19.18;63.49;100897.65;106556;1256;22726;-54
2023/11/11 02:04:27;;;;;;;26.70;7.80;;;;;;;19.17;63.85;100886.27;106711;1262;22529;-54
2023/11/11 02:06:55;;;;;;;25.70;6.40;;;;;;;19.17;63.99;100880.98;106223;1265;25363;-53
2023/11/11 02:09:22;;;;;;;17.40;5.60;;;;;;;19.18;63.87;100877.96;106587;1258;25335;-54
2023/11/11 02:11:55;;;;;;;24.30;7.10;;;;;;;19.18;64.16;100871.29;106566;1259;25580;-54
2023/11/11 02:14:22;;;;;;;24.40;7.40;;;;;;;19.17;64.32;100869.73;106557;1262;25363;-54
2023/11/11 02:16:50;;;;;;;24.10;7.00;;;;;;;19.16;64.41;100863.45;106825;1260;25638;-54
2023/11/11 02:19:17;;;;;;;28.50;7.10;;;;;;;19.14;64.61;100856.34;106840;1259;25580;-54
2023/11/11 02:21:47;;;;;;;32.00;6.80;;;;;;;19.13;64.98;100850.59;106876;1259;25331;-54
2023/11/11 02:24:14;;;;;;;38.80;8.40;;;;;;;19.12;65.24;100845.92;106611;1259;25366;-54
2023/11/11 02:26:41;;;;;;;23.60;7.00;;;;;;;19.10;65.32;100837.42;106363;1262;25485;-54
2023/11/11 02:29:08;;;;;;;24.90;8.30;;;;;;;19.09;65.73;100833.81;106420;1263;25347;-54
2023/11/11 02:31:35;;;;;;;40.30;9.10;;;;;;;19.07;66.10;100835.33;106541;1262;23391;-55
2023/11/11 02:34:02;;;;;;;32.30;9.10;;;;;;;19.06;66.29;100833.04;106402;1270;25369;-55
2023/11/11 02:36:29;;;;;;;32.80;8.70;;;;;;;19.08;66.26;100826.83;107021;1256;22523;-58
2023/11/11 02:38:56;;;;;;;28.20;6.70;;;;;;;19.04;66.50;100817.20;106982;1256;25504;-59
2023/11/11 02:41:24;;;;;;;30.50;7.80;;;;;;;18.98;66.71;100818.03;107051;1257;25427;-59
2023/11/11 02:43:51;;;;;;;26.60;7.20;;;;;;;18.95;66.86;100824.75;107015;1256;25359;-58
2023/11/11 02:46:18;;;;;;;41.70;10.30;;;;;;;18.93;67.08;100817.13;107024;1266;25456;-59
2023/11/11 02:48:47;;;;;;;36.20;8.30;;;;;;;18.92;67.31;100814.02;106930;1260;23223;-58
2023/11/11 02:51:14;;;;;;;33.60;8.30;;;;;;;18.92;67.39;100805.54;107011;1256;22610;-57
2023/11/11 02:53:41;;;;;;;33.90;7.80;;;;;;;18.91;67.40;100807.89;106898;1274;25318;-58
2023/11/11 02:56:09;;;;;;;28.30;8.80;;;;;;;18.91;67.61;100799.09;106798;1270;25412;-57
2023/11/11 02:58:37;;;;;;;32.60;8.80;;;;;;;18.93;67.82;100793.56;106389;1261;1003048;-57
2023/11/11 03:01:05;;;;;;;30.10;9.30;;;;;;;18.95;68.02;100798.01;107150;1254;25519;-57
2023/11/11 03:03:32;;;;;;;39.80;10.20;;;;;;;18.99;68.25;100797.43;107138;1258;25420;-57
2023/11/11 03:06:02;;;;;;;35.00;9.60;;;;;;;19.03;68.40;100794.02;107155;1257;25319;-57
2023/11/11 03:08:29;;;;;;;34.90;9.80;;;;;;;19.08;68.27;100783.55;106955;1267;24263;-57
2023/11/11 03:10:56;;;;;;;26.00;6.60;;;;;;;19.09;68.22;100774.88;107031;1267;25402;-57
2023/11/11 03:13:23;;;;;;;30.60;9.00;;;;;;;19.11;68.37;100774.56;107037;1263;23909;-56
2023/11/11 03:15:50;;;;;;;23.70;7.20;;;;;;;19.17;68.33;100768.64;107165;1254;25328;-58
2023/11/11 03:18:17;;;;;;;25.80;7.50;;;;;;;19.20;68.32;100764.02;107128;1259;25331;-57
2023/11/11 03:20:45;;;;;;;33.00;8.20;;;;;;;19.23;68.37;100762.62;107116;1257;25343;-55
2023/11/11 03:23:12;;;;;;;31.10;7.80;;;;;;;19.30;68.11;100761.20;106850;1259;25481;-56
2023/11/11 03:25:39;;;;;;;18.70;5.90;;;;;;;19.32;67.96;100760.54;107109;1253;25507;-55
2023/11/11 03:28:06;;;;;;;22.50;5.90;;;;;;;19.36;67.43;100756.48;106800;1259;25328;-55
2023/11/11 03:30:33;;;;;;;21.60;6.50;;;;;;;19.42;66.62;100745.56;107121;1269;25343;-54
2023/11/11 03:33:00;;;;;;;22.50;5.40;;;;;;;19.50;65.79;100747.91;106806;1259;25307;-54
2023/11/11 03:35:28;;;;;;;25.50;7.60;;;;;;;19.47;65.48;100749.80;107036;1259;25326;-54
2023/11/11 03:37:57;;;;;;;24.00;6.90;;;;;;;19.52;65.25;100746.04;107225;1254;25402;-54
2023/11/11 03:40:24;;;;;;;27.00;8.20;;;;;;;19.56;64.93;100744.39;106877;1270;25315;-54
2023/11/11 03:42:51;;;;;;;28.10;7.80;;;;;;;19.60;64.79;100745.77;107203;1255;25327;-54
2023/11/11 03:45:18;;;;;;;22.30;5.40;;;;;;;19.62;64.73;100741.25;107185;1266;25363;-53
2023/11/11 03:47:45;;;;;;;18.80;5.80;;;;;;;19.64;64.61;100746.38;107086;1256;25334;-54
2023/11/11 03:50:12;;;;;;;24.90;8.00;;;;;;;19.67;64.45;100745.65;107181;1261;24205;-54
2023/11/11 03:52:40;;;;;;;24.40;6.50;;;;;;;19.75;64.17;100743.59;107037;1257;25356;-54
2023/11/11 03:55:07;;;;;;;19.70;5.70;;;;;;;19.80;63.94;100741.38;106852;1263;22520;-54
2023/11/11 03:57:35;;;;;;;14.80;5.50;;;;;;;19.83;63.57;100738.16;106899;1266;22542;-53
2023/11/11 04:00:10;;;;;;;24.50;6.50;;;;;;;19.79;63.70;100735.47;107198;1257;25352;-54
2023/11/11 04:02:38;;;;;;;25.80;5.90;;;;;;;19.79;63.35;100729.78;106853;1257;22529;-53
2023/11/11 04:05:10;;;;;;;19.80;5.80;;;;;;;19.83;63.11;100731.70;107173;1255;25356;-54
2023/11/11 04:07:41;;;;;;;18.50;4.60;;;;;;;19.91;62.77;100727.10;107053;1254;24176;-54
2023/11/11 04:10:08;;;;;;;25.70;5.60;;;;;;;19.94;62.64;100724.84;107132;1256;25404;-54
2023/11/11 04:12:36;;;;;;;22.70;5.80;;;;;;;19.94;62.64;100719.38;107151;1263;25346;-54
2023/11/11 04:15:04;;;;;;;20.70;6.20;;;;;;;19.96;62.54;100713.10;106837;1255;25398;-54
2023/11/11 04:17:31;;;;;;;23.60;6.10;;;;;;;19.96;62.69;100710.66;107069;1263;22636;-53
2023/11/11 04:19:58;;;;;;;35.00;7.50;;;;;;;19.88;62.88;100710.25;107114;1257;25502;-54
2023/11/11 04:22:26;;;;;;;26.20;6.50;;;;;;;19.85;63.09;100707.60;107095;1257;25343;-54
2023/11/11 04:24:54;;;;;;;28.70;7.80;;;;;;;19.86;63.37;100701.73;107172;1257;25343;-55
2023/11/11 04:27:20;;;;;;;31.30;9.00;;;;;;;20.04;62.94;100695.89;106820;1260;22642;-55
2023/11/11 04:29:47;;;;;;;21.40;6.50;;;;;;;20.09;62.78;100684.81;107152;1267;24171;-54
2023/11/11 04:32:14;;;;;;;16.50;4.70;;;;;;;20.12;62.71;100684.58;106904;1254;25496;-53
2023/11/11 04:34:43;;;;;;;23.50;6.00;;;;;;;20.13;62.33;100681.91;106953;1257;25339;-53
2023/11/11 04:37:10;;;;;;;23.20;5.20;;;;;;;20.13;62.03;100683.33;106843;1257;25497;-53
2023/11/11 04:39:36;;;;;;;20.10;5.00;;;;;;;20.13;61.96;100674.17;106783;1257;25343;-53
2023/11/11 04:42:03;;;;;;;21.60;5.60;;;;;;;20.14;61.77;100676.05;106999;1262;22746;-53
2023/11/11 04:44:31;;;;;;;17.90;5.60;;;;;;;20.20;61.44;100676.55;107190;1254;25407;-54
2023/11/11 04:46:58;;;;;;;19.10;5.90;;;;;;;20.18;61.18;100681.94;107194;1254;25337;-54
2023/11/11 04:49:25;;;;;;;18.00;4.60;;;;;;;20.19;60.93;100689.65;107166;1256;25477;-53
2023/11/11 04:51:52;;;;;;;16.60;4.70;;;;;;;20.21;60.46;100692.38;107140;1254;25356;-53
2023/11/11 04:54:19;;;;;;;17.00;4.70;;;;;;;20.19;60.33;100698.64;106901;1258;25356;-53
2023/11/11 04:56:46;;;;;;;14.50;4.50;;;;;;;20.20;60.26;100703.17;107162;1263;25536;-53
2023/11/11 04:59:13;;;;;;;12.10;4.50;;;;;;;20.14;59.58;100702.09;107229;1254;25436;-52
2023/11/11 05:01:40;;;;;;;19.10;5.30;;;;;;;20.08;59.18;100704.73;106951;1267;25435;-52
2023/11/11 05:04:08;;;;;;;19.30;5.20;;;;;;;20.09;59.18;100697.64;107215;1254;25375;-53
2023/11/11 05:06:35;;;;;;;21.80;4.90;;;;;;;20.11;59.15;100698.78;107115;1263;22530;-52
2023/11/11 05:09:04;;;;;;;18.00;4.50;;;;;;;20.10;58.58;100695.69;107290;1263;23178;-53
2023/11/11 05:11:31;;;;;;;15.40;4.20;;;;;;;20.09;58.36;100694.14;107027;1254;25319;-53
2023/11/11 05:13:59;;;;;;;20.30;5.20;;;;;;;20.09;58.46;100690.42;106903;1266;25478;-53
2023/11/11 05:16:39;;;;;;;13.10;4.20;;;;;;;20.11;58.71;100688.91;107148;1263;25404;-53
2023/11/11 05:19:06;;;;;;;22.80;5.60;;;;;;;20.12;59.03;100684.05;107093;1257;25526;-53
2023/11/11 05:21:33;;;;;;;19.60;5.70;;;;;;;20.14;59.43;100685.88;107282;1254;25318;-53
2023/11/11 05:24:01;;;;;;;17.40;5.20;;;;;;;20.16;59.94;100686.30;107126;1257;25356;-53
2023/11/11 05:26:28;;;;;;;27.20;6.10;;;;;;;20.17;60.23;100685.14;107153;1257;25330;-52
2023/11/11 05:28:55;;;;;;;22.90;5.50;;;;;;;20.18;60.60;100682.10;107161;1254;25356;-53
2023/11/11 05:31:23;;;;;;;28.70;7.00;;;;;;;20.19;60.62;100684.36;107086;1254;25350;-54
2023/11/11 05:33:51;;;;;;;23.00;5.70;;;;;;;20.20;60.71;100683.60;107143;1254;22533;-52
2023/11/11 05:36:19;;;;;;;21.50;5.60;;;;;;;20.21;61.06;100691.67;106940;1258;25410;-53
2023/11/11 05:38:47;;;;;;;20.90;5.20;;;;;;;20.20;59.64;100698.06;107134;1254;25356;-53
2023/11/11 05:41:16;;;;;;;24.70;5.20;;;;;;;20.16;59.05;100691.56;107073;1250;24356;-53
2023/11/11 05:43:43;;;;;;;21.30;5.20;;;;;;;20.12;59.03;100689.19;107107;1261;25319;-52
2023/11/11 05:46:11;;;;;;;23.20;5.90;;;;;;;20.09;59.60;100684.80;107081;1254;25405;-52
2023/11/11 05:48:43;;;;;;;19.70;4.50;;;;;;;20.06;60.47;100680.45;107131;1267;25337;-53
2023/11/11 05:51:12;;;;;;;21.90;5.60;;;;;;;20.05;61.14;100677.14;107116;1263;22534;-53
2023/11/11 05:53:39;;;;;;;24.30;6.50;;;;;;;20.05;61.78;100681.16;107144;1258;25230;-53
2023/11/11 05:56:09;;;;;;;22.90;5.70;;;;;;;20.06;62.01;100675.66;106783;1267;22530;-53
2023/11/11 05:58:36;;;;;;;14.80;4.60;;;;;;;20.08;62.10;100673.43;107196;1255;23290;-53
2023/11/11 06:01:07;;;;;;;15.50;4.60;;;;;;;20.18;61.98;100674.21;107174;1266;25481;-54
2023/11/11 06:03:36;;;;;;;14.60;5.10;;;;;;;20.22;61.95;100670.61;107048;1257;25331;-53
2023/11/11 06:06:04;;;;;;;12.30;3.70;;;;;;;20.24;61.92;100668.35;107158;1257;25423;-54
2023/11/11 06:08:31;;;;;;;19.30;4.60;;;;;;;20.27;61.94;100660.29;107086;1258;25349;-54
2023/11/11 06:10:58;;;;;;;15.30;4.80;;;;;;;20.30;62.09;100657.27;106940;1260;25792;-53
2023/11/11 06:13:25;;;;;;;30.30;5.80;;;;;;;20.32;61.78;100654.83;106730;1262;25331;-53
2023/11/11 06:15:52;;;;;;;23.00;5.50;;;;;;;20.33;61.56;100657.07;107111;1256;25369;-54
2023/11/11 06:18:19;;;;;;;13.30;4.40;;;;;;;20.34;61.34;100659.64;106480;1267;25331;-54
2023/11/11 06:20:46;;;;;;;19.10;5.10;;;;;;;20.26;61.32;100658.38;106777;1266;22559;-53
2023/11/11 06:23:13;;;;;;;20.80;5.50;;;;;;;20.24;61.21;100653.62;107099;1257;25379;-53
2023/11/11 06:25:43;;;;;;;17.70;4.80;;;;;;;20.25;61.14;100656.54;107183;1263;25223;-53
2023/11/11 06:28:10;;;;;;;17.00;4.90;;;;;;;20.26;61.10;100653.98;107228;1263;24223;-53
2023/11/11 06:30:37;;;;;;;12.50;4.20;;;;;;;20.27;60.80;100654.13;106765;1269;25321;-53
2023/11/11 06:33:04;;;;;;;13.50;4.60;;;;;;;20.28;60.77;100656.86;106987;1257;25352;-53
2023/11/11 06:35:34;;;;;;;16.80;5.60;;;;;;;20.30;60.68;100649.89;107048;1257;25439;-53
2023/11/11 06:38:01;;;;;;;20.70;4.60;;;;;;;20.31;60.91;100645.93;106910;1254;22521;-53
2023/11/11 06:40:30;;;;;;;23.30;5.70;;;;;;;20.33;61.00;100642.30;106867;1259;25318;-53
2023/11/11 06:42:57;;;;;;;22.10;5.90;;;;;;;20.36;61.42;100631.70;107157;1254;25319;-53
2023/11/11 06:45:25;;;;;;;21.70;4.50;;;;;;;20.39;61.69;100627.09;107065;1260;25488;-53
2023/11/11 06:47:52;;;;;;;18.70;5.40;;;;;;;20.44;61.55;100625.52;106876;1261;25330;-53
2023/11/11 06:50:19;;;;;;;20.70;6.90;;;;;;;20.50;61.49;100626.39;107032;1256;22534;-54
2023/11/11 06:52:48;;;;;;;16.80;6.00;;;;;;;20.53;61.08;100619.65;106781;1254;25593;-53
2023/11/11 06:55:15;;;;;;;13.00;5.30;;;;;;;20.55;60.75;100619.86;106569;1259;25312;-53
2023/11/11 06:57:42;;;;;;;13.80;5.30;;;;;;;20.63;60.26;100613.17;106929;1267;25328;-53
2023/11/11 07:00:15;;;;;;;17.50;5.50;;;;;;;20.69;60.03;100607.11;107059;1257;25430;-53
2023/11/11 07:02:43;;;;;;;15.60;5.10;;;;;;;20.72;59.69;100606.38;107088;1255;22779;-53
2023/11/11 07:05:10;;;;;;;14.30;5.50;;;;;;;20.70;59.67;100608.29;106893;1267;25356;-53
2023/11/11 07:07:40;;;;;;;14.70;5.50;;;;;;;20.65;59.86;100610.39;106899;1270;25398;-53
2023/11/11 07:10:09;;;;;;;16.70;6.40;;;;;;;20.67;59.93;100603.36;106990;1256;25398;-53
2023/11/11 07:12:36;;;;;;;17.40;5.60;;;;;;;20.71;59.90;100595.73;107206;1256;25245;-53
2023/11/11 07:15:03;;;;;;;20.40;6.80;;;;;;;20.73;59.67;100593.23;106854;1259;25481;-53
2023/11/11 07:17:30;;;;;;;21.00;5.70;;;;;;;20.77;59.85;100589.66;107133;1256;22549;-53
2023/11/11 07:19:57;;;;;;;16.80;5.50;;;;;;;20.80;59.78;100585.92;107020;1266;25411;-54
2023/11/11 07:22:25;;;;;;;22.80;6.10;;;;;;;20.83;59.48;100583.45;107155;1257;25322;-54
2023/11/11 07:24:54;;;;;;;18.20;5.80;;;;;;;20.84;58.97;100581.05;106901;1266;24044;-53
2023/11/11 07:27:21;;;;;;;24.90;6.10;;;;;;;20.88;58.65;100581.48;107143;1256;22526;-53
2023/11/11 07:29:48;;;;;;;21.20;6.30;;;;;;;20.94;58.76;100577.25;106812;1267;25508;-53
2023/11/11 07:32:15;;;;;;;18.00;5.90;;;;;;;20.98;58.69;100578.32;106710;1265;25347;-53
2023/11/11 07:34:43;;;;;;;16.00;5.20;;;;;;;21.00;58.47;100578.73;106925;1259;25475;-53
2023/11/11 07:37:11;;;;;;;22.20;6.40;;;;;;;21.00;58.34;100575.72;107083;1255;25328;-53
2023/11/11 07:39:39;;;;;;;17.20;6.00;;;;;;;21.03;58.42;100571.72;107166;1257;22524;-53
2023/11/11 07:42:07;;;;;;;21.60;5.70;;;;;;;21.05;58.42;100569.44;106388;1264;1002965;-53
2023/11/11 07:44:36;;;;;;;20.20;6.70;;;;;;;21.06;58.32;100567.44;106826;1259;22526;-52
2023/11/11 07:47:06;;;;;;;19.10;5.90;;;;;;;21.08;58.68;100566.10;106833;1257;339443;-55
2023/11/11 07:49:34;;;;;;;19.30;5.80;;;;;;;21.11;58.95;100560.98;106938;1257;25346;-53
2023/11/11 07:52:01;;;;;;;15.10;5.40;;;;;;;21.13;58.85;100561.73;107028;1257;25240;-53
2023/11/11 07:54:31;;;;;;;16.40;6.00;;;;;;;21.15;58.81;100551.18;107090;1261;25347;-53
2023/11/11 07:56:58;;;;;;;17.70;6.80;;;;;;;21.16;58.49;100549.30;107143;1264;25340;-52
2023/11/11 07:59:28;;;;;;;14.00;5.90;;;;;;;21.18;58.23;100539.45;107217;1257;24195;-53
2023/11/11 08:01:57;;;;;;;17.10;6.20;;;;;;;21.21;57.96;100542.23;106845;1256;25225;-52
2023/11/11 08:04:24;;;;;;;15.60;6.10;;;;;;;21.24;57.61;100538.20;106800;1273;22523;-52
2023/11/11 08:06:51;;;;;;;12.70;6.50;;;;;;;21.26;57.47;100535.01;106933;1266;26144;-52
2023/11/11 08:09:20;;;;;;;17.00;6.50;;;;;;;21.29;57.62;100526.40;107166;1257;22553;-53
2023/11/11 08:11:47;;;;;;;16.30;6.40;;;;;;;21.30;57.58;100526.45;107116;1255;22531;-52
2023/11/11 08:14:15;;;;;;;18.80;6.00;;;;;;;21.31;57.43;100528.86;107077;1251;25906;-53
2023/11/11 08:16:41;;;;;;;21.00;6.90;;;;;;;21.31;57.54;100526.92;106806;1257;25446;-52
2023/11/11 08:19:08;;;;;;;17.40;6.50;;;;;;;21.31;57.79;100528.02;106892;1255;22848;-53
2023/11/11 08:21:35;;;;;;;16.70;7.00;;;;;;;21.31;57.84;100528.02;106917;1263;25340;-53
2023/11/11 08:24:03;;;;;;;14.60;7.00;;;;;;;21.29;57.75;100524.02;107087;1257;25330;-52
2023/11/11 08:26:31;;;;;;;16.20;6.50;;;;;;;21.28;57.63;100517.30;107091;1257;25415;-53
2023/11/11 08:29:00;;;;;;;16.90;6.90;;;;;;;21.26;57.90;100516.33;107083;1256;22522;-55
2023/11/11 08:31:27;;;;;;;16.00;5.70;;;;;;;21.25;57.74;100511.98;107131;1257;22912;-53
2023/11/11 08:33:54;;;;;;;15.40;6.50;;;;;;;21.24;57.60;100507.84;107217;1267;25405;-53
2023/11/11 08:36:24;;;;;;;16.80;6.10;;;;;;;21.22;57.61;100506.75;107241;1257;25366;-53
2023/11/11 08:38:52;;;;;;;21.20;6.10;;;;;;;21.22;57.98;100503.23;107138;1251;24374;-53
2023/11/11 08:41:19;;;;;;;14.10;6.60;;;;;;;21.22;58.04;100498.79;107101;1254;24236;-53
2023/11/11 08:43:46;;;;;;;17.50;7.30;;;;;;;21.23;58.06;100489.38;107176;1254;25318;-53
2023/11/11 08:46:13;;;;;;;19.00;7.10;;;;;;;21.23;58.26;100487.39;107087;1262;25405;-53
2023/11/11 08:48:40;;;;;;;17.00;6.50;;;;;;;21.25;58.57;100482.73;107087;1254;25328;-53
2023/11/11 08:51:08;;;;;;;19.00;7.00;;;;;;;21.25;58.85;100481.97;106903;1259;24206;-53
2023/11/11 08:53:35;;;;;;;19.50;6.80;;;;;;;21.26;59.00;100476.27;106864;1258;23864;-53
2023/11/11 08:56:03;;;;;;;22.30;7.20;;;;;;;21.27;58.93;100466.88;107090;1260;25480;-53
2023/11/11 08:58:30;;;;;;;21.20;7.10;;;;;;;21.27;58.96;100466.32;107024;1254;22836;-53
2023/11/11 09:00:59;;;;;;;18.00;7.70;;;;;;;21.30;59.01;100460.29;107101;1256;25478;-54
2023/11/11 09:03:27;;;;;;;14.70;7.30;;;;;;;21.26;59.39;100452.30;107130;1260;22523;-54
2023/11/11 09:05:55;;;;;;;22.00;7.90;;;;;;;21.24;59.56;100447.30;107131;1251;25226;-53
2023/11/11 09:08:24;;;;;;;22.10;8.70;;;;;;;21.21;59.87;100436.56;107131;1256;23328;-54
2023/11/11 09:10:51;;;;;;;25.60;8.10;;;;;;;21.15;60.28;100439.64;106995;1254;25482;-54
2023/11/11 09:13:22;;;;;;;26.60;9.30;;;;;;;21.17;60.42;100437.45;107013;1254;25321;-54
2023/11/11 09:15:50;;;;;;;26.90;10.80;;;;;;;21.11;60.30;100426.52;106858;1267;22531;-53
2023/11/11 09:18:18;;;;;;;26.30;10.30;;;;;;;21.03;60.44;100419.14;106933;1260;25177;-54
2023/11/11 09:20:45;;;;;;;25.80;9.70;;;;;;;20.97;60.78;100410.20;107084;1260;22541;-53
2023/11/11 09:23:12;;;;;;;23.00;11.00;;;;;;;20.97;60.85;100405.44;106874;1263;25788;-55
2023/11/11 09:25:40;;;;;;;27.40;11.40;;;;;;;20.93;61.39;100397.77;107277;1257;26709;-60
2023/11/11 09:28:07;;;;;;;33.60;11.10;;;;;;;20.86;61.89;100396.13;107312;1263;26475;-56
2023/11/11 09:30:35;;;;;;;28.70;11.30;;;;;;;20.80;62.50;100387.63;107099;1254;22523;-56
2023/11/11 09:33:03;;;;;;;32.80;12.30;;;;;;;20.77;62.90;100379.72;106892;1263;25445;-56
2023/11/11 09:35:30;;;;;;;29.40;11.10;;;;;;;20.74;63.08;100371.27;106881;1258;25328;-56
2023/11/11 09:37:59;;;;;;;24.10;12.10;;;;;;;20.72;63.30;100369.30;107061;1259;22543;-56
2023/11/11 09:40:26;;;;;;;36.20;12.10;;;;;;;20.72;63.54;100364.05;106887;1256;22524;-57
2023/11/11 09:42:53;;;;;;;34.10;11.30;;;;;;;20.70;63.74;100352.35;107072;1257;25347;-57
2023/11/11 09:45:21;;;;;;;26.30;10.40;;;;;;;20.70;63.86;100342.84;107299;1256;25338;-57
2023/11/11 09:47:52;;;;;;;23.90;10.90;;;;;;;20.70;64.00;100339.98;107104;1256;25380;-57
2023/11/11 09:50:19;;;;;;;26.30;10.40;;;;;;;20.71;64.09;100344.56;106903;1263;22530;-57
2023/11/11 09:52:48;;;;;;;19.00;9.60;;;;;;;20.69;64.17;100350.85;107055;1260;25312;-58
2023/11/11 09:55:15;;;;;;;17.90;8.30;;;;;;;20.66;63.73;100336.62;106984;1260;25359;-58
2023/11/11 09:57:43;;;;;;;23.20;8.90;;;;;;;20.63;63.64;100326.77;107523;1263;23165;-58
2023/11/11 10:00:11;;;;;;;28.90;10.10;;;;;;;20.61;63.23;100334.31;106893;1256;22531;-57
2023/11/11 10:02:38;;;;;;;31.00;10.10;;;;;;;20.57;62.85;100320.48;106896;1255;24202;-58
2023/11/11 10:05:09;;;;;;;26.70;9.60;;;;;;;20.53;62.62;100319.16;107606;1256;25271;-58
2023/11/11 10:07:37;;;;;;;23.60;9.00;;;;;;;20.50;62.52;100317.61;107359;1266;25308;-57
2023/11/11 10:10:27;;;;;;;20.70;10.20;;;;;;;20.50;62.92;100304.45;107715;1267;25500;-57
2023/11/11 10:12:54;;;;;;;24.30;10.40;;;;;;;20.53;63.46;100300.00;107050;1267;25382;-57
2023/11/11 10:15:21;;;;;;;27.10;11.20;;;;;;;20.57;64.49;100280.82;106994;1260;25436;-57
2023/11/11 10:17:49;;;;;;;24.30;10.40;;;;;;;20.67;65.31;100283.44;107417;1273;25472;-57
2023/11/11 10:20:17;;;;;;;31.20;11.50;;;;;;;20.78;65.21;100276.67;106943;1276;24193;-57
2023/11/11 10:22:48;;;;;;;33.90;12.10;;;;;;;20.88;64.78;100270.30;106809;1261;25404;-58
2023/11/11 10:25:19;;;;;;;28.40;11.20;;;;;;;20.95;64.52;100273.15;106924;1270;24238;-58
2023/11/11 10:27:52;;;;;;;15.70;9.50;;;;;;;21.01;64.13;100268.70;106661;1270;25932;-57
2023/11/11 10:30:25;;;;;;;21.20;9.90;;;;;;;21.08;63.83;100264.49;106735;1257;22531;-57
2023/11/11 10:32:53;;;;;;;22.10;10.40;;;;;;;21.11;63.71;100256.55;106627;1266;25339;-56
2023/11/11 10:35:21;;;;;;;29.10;11.20;;;;;;;21.15;63.28;100250.39;106703;1261;25328;-57
2023/11/11 10:37:50;;;;;;;37.90;12.80;;;;;;;21.21;63.02;100250.29;106865;1273;25468;-57
2023/11/11 10:40:18;;;;;;;29.40;12.00;;;;;;;21.28;62.71;100257.91;106782;1270;24207;-58
2023/11/11 10:42:48;;;;;;;20.40;10.60;;;;;;;21.33;62.17;100263.34;106686;1267;22540;-57
2023/11/11 10:45:16;;;;;;;19.30;8.90;;;;;;;21.38;61.94;100261.70;106174;1278;25337;-58
2023/11/11 10:47:44;;;;;;;24.10;9.60;;;;;;;21.43;61.74;100260.64;106989;1260;22549;-58
2023/11/11 10:50:11;;;;;;;24.70;9.20;;;;;;;21.48;61.71;100250.75;107273;1269;23948;-58
2023/11/11 10:52:42;;;;;;;20.20;9.30;;;;;;;21.52;61.47;100236.47;106952;1261;22631;-58
2023/11/11 10:55:10;;;;;;;21.80;8.10;;;;;;;21.58;61.12;100239.41;106824;1260;25018;-58
2023/11/11 10:57:40;;;;;;;24.30;9.00;;;;;;;21.61;60.73;100240.05;106971;1254;25512;-58
2023/11/11 11:00:19;;;;;;;26.00;9.50;;;;;;;21.64;60.55;100236.97;106942;1260;25351;-56
2023/11/11 11:02:49;;;;;;;17.40;7.90;;;;;;;21.59;60.56;100231.02;106781;1264;25513;-57
2023/11/11 11:05:42;;;;;;;19.40;8.70;;;;;;;21.66;60.27;100228.91;106978;1257;24327;-59
2023/11/11 11:08:15;;;;;;;22.20;8.70;;;;;;;21.71;60.01;100222.36;106839;1271;25410;-58
2023/11/11 11:11:25;;;;;;;22.70;9.30;;;;;;;21.72;59.94;100221.06;106738;1269;23067;-56
2023/11/11 11:13:57;;;;;;;14.80;6.90;;;;;;;21.72;59.91;100228.29;106161;1273;22546;-56